M I D A S
Marine Information and Data Acquisition System
Tripno 2098 of the Zeeleeuw from 2011-05-09 07:32:46 to 2011-05-09 14:36:38
Back to CruiseResearch ActivitiesStationsMapUnderway DataData graphs

EquipmentUnitsComments
TimeDGPSUTC
LatitudeDGPSDM.mWGS84
LongitudeDGPSDM.mWGS84
SpeedMeteo Stationm/sRelative wind speed
DirectionMeteo StationdegRelative wind direction
TemperatureMeteo Stationdeg CelciusAir temperature
PressureMeteo StationPaAtmospheric pressure
HumidityMeteo Station%Relative humidity
Missing or incorrect values are displayed as -999
Metereological data collected by the RV Zeeleeuw from 2011-05-09 07:16:12 to 2011-05-09 14:47:01
Time Latitude Longitude Speed Direction Temperature Pressure Humidity
2011-05-09 07:17 51°13.661 2°55.959 -999 35 14.4 102240 41
2011-05-09 07:18 51°13.66 2°55.961 -999 35 14.3 102240 41
2011-05-09 07:19 51°13.662 2°55.952 -999 35 14.2 102240 40
2011-05-09 07:20 51°13.681 2°55.87 -999 35 14.1 102250 40
2011-05-09 07:21 51°13.693 2°55.772 -999 35 14 102250 41
2011-05-09 07:22 51°13.703 2°55.746 -999 243 14 102250 41
2011-05-09 07:23 51°13.752 2°55.714 -999 320 14.1 102250 41
2011-05-09 07:24 51°13.862 2°55.615 6.5 330 14.1 102250 41
2011-05-09 07:25 51°14.004 2°55.509 5.2 329 14.1 102250 40
2011-05-09 07:26 51°14.151 2°55.4 6.7 323 14.1 102260 41
2011-05-09 07:27 51°14.287 2°55.27 5.5 324 14.1 102260 41
2011-05-09 07:28 51°14.436 2°55.128 5.9 326 14 102260 41
2011-05-09 07:29 51°14.588 2°54.968 6.4 326 14 102260 41
2011-05-09 07:30 51°14.648 2°54.683 -999 333 13.9 102260 41
2011-05-09 07:31 51°14.545 2°54.409 -999 336 13.8 102270 41
2011-05-09 07:32 51°14.419 2°54.126 -999 333 13.8 102270 41
2011-05-09 07:33 51°14.318 2°53.822 -999 335 13.8 102270 41
2011-05-09 07:34 51°14.198 2°53.526 -999 334 13.8 102270 41
2011-05-09 07:35 51°14.08 2°53.235 -999 335 13.8 102270 41
2011-05-09 07:36 51°13.977 2°52.928 -999 334 13.8 102270 41
2011-05-09 07:37 51°13.859 2°52.633 -999 335 13.8 102270 41
2011-05-09 07:38 51°13.744 2°52.336 -999 334 13.8 102270 41
2011-05-09 07:39 51°13.631 2°52.039 -999 335 13.8 102270 41
2011-05-09 07:40 51°13.517 2°51.744 -999 334 13.8 102260 41
2011-05-09 07:41 51°13.426 2°51.438 -999 334 13.8 102270 41
2011-05-09 07:42 51°13.326 2°51.132 -999 333 13.8 102270 41
2011-05-09 07:43 51°13.219 2°50.827 -999 332 13.8 102270 41
2011-05-09 07:44 51°13.124 2°50.515 -999 334 13.8 102270 41
2011-05-09 07:45 51°13.016 2°50.219 -999 334 13.8 102270 41
2011-05-09 07:46 51°12.917 2°49.902 -999 333 13.9 102280 41
2011-05-09 07:47 51°12.819 2°49.589 -999 333 13.8 102270 41
2011-05-09 07:48 51°12.713 2°49.285 -999 333 13.9 102280 41
2011-05-09 07:49 51°12.611 2°48.982 -999 333 13.8 102280 41
2011-05-09 07:50 51°12.507 2°48.668 -999 332 13.8 102270 41
2011-05-09 07:51 51°12.413 2°48.356 -999 332 13.8 102270 41
2011-05-09 07:52 51°12.31 2°48.046 -999 333 13.8 102270 41
2011-05-09 07:53 51°12.203 2°47.731 -999 332 13.8 102270 41
2011-05-09 07:54 51°12.121 2°47.404 -999 333 13.8 102270 41
2011-05-09 07:55 51°12.045 2°47.074 -999 332 13.8 102270 41
2011-05-09 07:56 51°11.968 2°46.754 -999 331 13.8 102280 41
2011-05-09 07:57 51°11.898 2°46.415 -999 333 13.8 102280 41
2011-05-09 07:58 51°11.813 2°46.096 -999 332 13.9 102280 41
2011-05-09 07:59 51°11.746 2°45.759 -999 332 13.9 102280 41
2011-05-09 08:00 51°11.712 2°45.404 -999 331 13.8 102270 41
2011-05-09 08:01 51°11.665 2°45.059 -999 331 13.9 102270 42
2011-05-09 08:02 51°11.621 2°44.713 -999 332 13.8 102270 41
2011-05-09 08:03 51°11.584 2°44.37 -999 333 13.9 102270 42
2011-05-09 08:04 51°11.554 2°44.012 -999 334 13.9 102270 41
2011-05-09 08:05 51°11.538 2°43.665 -999 332 13.8 102270 41
2011-05-09 08:06 51°11.508 2°43.318 -999 332 13.8 102270 41
2011-05-09 08:07 51°11.488 2°42.962 -999 331 13.8 102270 41
2011-05-09 08:08 51°11.455 2°42.613 -999 330 13.8 102270 41
2011-05-09 08:09 51°11.436 2°42.268 -999 332 13.9 102280 41
2011-05-09 08:10 51°11.379 2°41.929 -999 331 13.9 102280 41
2011-05-09 08:11 51°11.308 2°41.589 -999 333 13.8 102280 41
2011-05-09 08:12 51°11.187 2°41.303 -999 334 13.9 102280 41
2011-05-09 08:13 51°11.062 2°41.003 -999 333 13.9 102280 41
2011-05-09 08:14 51°10.946 2°40.706 -999 334 13.9 102280 41
2011-05-09 08:15 51°10.823 2°40.419 -999 333 13.9 102280 41
2011-05-09 08:16 51°10.706 2°40.121 -999 333 13.9 102280 41
2011-05-09 08:17 51°10.59 2°39.828 -999 335 14 102270 41
2011-05-09 08:18 51°10.464 2°39.528 -999 334 14 102280 40
2011-05-09 08:19 51°10.348 2°39.224 -999 335 14 102280 40
2011-05-09 08:20 51°10.235 2°38.918 -999 336 14 102280 40
2011-05-09 08:21 51°10.108 2°38.625 -999 336 14.1 102290 40
2011-05-09 08:22 51°9.994 2°38.317 -999 334 14.2 102280 40
2011-05-09 08:23 51°9.876 2°38.012 -999 335 14.3 102280 40
2011-05-09 08:24 51°9.758 2°37.706 -999 336 14.3 102290 40
2011-05-09 08:25 51°9.64 2°37.4 -999 337 14.4 102280 39
2011-05-09 08:26 51°9.519 2°37.094 -999 335 14.4 102280 39
2011-05-09 08:27 51°9.406 2°36.791 -999 338 14.5 102280 39
2011-05-09 08:28 51°9.293 2°36.49 -999 335 14.5 102290 39
2011-05-09 08:29 51°9.276 2°36.275 -999 332 14.5 102290 39
2011-05-09 08:30 51°9.271 2°36.162 -999 344 14.6 102290 39
2011-05-09 08:31 51°9.265 2°36.126 -999 3 14.6 102300 38
2011-05-09 08:32 51°9.268 2°36.107 -999 13 14.4 102300 39
2011-05-09 08:33 51°9.27 2°36.085 -999 13 14.3 102300 39
2011-05-09 08:34 51°9.27 2°36.062 -999 7 14.2 102300 39
2011-05-09 08:35 51°9.269 2°36.039 -999 14 14.1 102300 39
2011-05-09 08:36 51°9.269 2°36.013 -999 16 14.2 102290 39
2011-05-09 08:37 51°9.267 2°35.988 -999 14 14.2 102290 39
2011-05-09 08:38 51°9.265 2°35.962 -999 21 14.2 102290 39
2011-05-09 08:39 51°9.262 2°35.936 -999 24 14.2 102290 39
2011-05-09 08:40 51°9.258 2°35.909 -999 32 14.3 102280 39
2011-05-09 08:41 51°9.255 2°35.883 -999 33 14.3 102290 39
2011-05-09 08:42 51°9.25 2°35.854 -999 29 14.3 102290 39
2011-05-09 08:43 51°9.246 2°35.825 -999 21 14.3 102290 39
2011-05-09 08:44 51°9.24 2°35.797 -999 14 14.4 102290 39
2011-05-09 08:45 51°9.199 2°35.792 -999 342 14.4 102290 39
2011-05-09 08:46 51°9.112 2°35.725 -999 334 14.4 102290 39
2011-05-09 08:47 51°9.064 2°35.617 -999 331 14.6 102290 39
2011-05-09 08:48 51°9.029 2°35.519 -999 334 14.7 102290 39
2011-05-09 08:49 51°9.004 2°35.429 -999 332 14.8 102290 39
2011-05-09 08:50 51°8.981 2°35.346 -999 335 14.9 102290 39
2011-05-09 08:51 51°8.961 2°35.27 -999 335 15 102290 39
2011-05-09 08:52 51°8.941 2°35.195 -999 335 15.1 102290 39
2011-05-09 08:53 51°8.919 2°35.119 -999 331 15.1 102290 39
2011-05-09 08:54 51°8.895 2°35.032 -999 331 15.2 102300 39
2011-05-09 08:55 51°8.869 2°34.945 -999 330 15.3 102300 38
2011-05-09 08:56 51°8.84 2°34.852 -999 336 15.3 102300 38
2011-05-09 08:57 51°8.81 2°34.76 -999 330 15.3 102300 38
2011-05-09 08:58 51°8.779 2°34.668 -999 331 15.3 102310 38
2011-05-09 08:59 51°8.748 2°34.575 -999 331 15.3 102310 38
2011-05-09 09:00 51°8.716 2°34.479 -999 330 15.3 102310 38
2011-05-09 09:01 51°8.685 2°34.386 -999 331 15.3 102320 38
2011-05-09 09:02 51°8.655 2°34.29 -999 332 15.3 102320 38
2011-05-09 09:03 51°8.624 2°34.191 -999 331 15.3 102320 38
2011-05-09 09:04 51°8.595 2°34.095 -999 336 15.3 102320 38
2011-05-09 09:05 51°8.565 2°33.996 -999 336 15.3 102320 38
2011-05-09 09:06 51°8.534 2°33.9 -999 338 15.3 102320 38
2011-05-09 09:07 51°8.503 2°33.806 -999 341 15.2 102320 38
2011-05-09 09:08 51°8.469 2°33.713 -999 344 15.1 102320 38
2011-05-09 09:09 51°8.435 2°33.618 -999 343 14.9 102320 39
2011-05-09 09:10 51°8.403 2°33.525 -999 342 14.9 102320 39
2011-05-09 09:11 51°8.372 2°33.431 -999 344 14.8 102320 39
2011-05-09 09:12 51°8.341 2°33.334 -999 344 14.6 102320 39
2011-05-09 09:13 51°8.311 2°33.239 -999 348 14.4 102330 39
2011-05-09 09:14 51°8.281 2°33.143 -999 349 14.3 102330 40
2011-05-09 09:15 51°8.25 2°33.05 -999 350 14.2 102330 40
2011-05-09 09:16 51°8.216 2°32.956 -999 352 14 102330 40
2011-05-09 09:17 51°8.188 2°32.858 -999 344 14 102330 40
2011-05-09 09:18 51°8.177 2°32.754 -999 334 14 102330 40
2011-05-09 09:19 51°8.182 2°32.654 -999 327 14.1 102330 40
2011-05-09 09:20 51°8.2 2°32.566 -999 319 14.3 102330 40
2011-05-09 09:21 51°8.231 2°32.489 -999 36 14.5 102330 40
2011-05-09 09:22 51°8.27 2°32.438 -999 237 14.6 102330 40
2011-05-09 09:23 51°8.324 2°32.466 -999 239 14.7 102330 40
2011-05-09 09:24 51°8.336 2°32.55 -999 265 14.7 102330 40
2011-05-09 09:25 51°8.331 2°32.623 -999 238 14.8 102330 40
2011-05-09 09:26 51°8.357 2°32.714 -999 247 15 102330 40
2011-05-09 09:27 51°8.385 2°32.732 -999 250 15.1 102330 40
2011-05-09 09:28 51°8.406 2°32.724 -999 242 15.2 102330 40
2011-05-09 09:29 51°8.461 2°32.734 -999 36 15.3 102330 39
2011-05-09 09:30 51°8.535 2°32.773 -999 237 15.3 102320 39
2011-05-09 09:31 51°8.577 2°32.782 -999 238 15.2 102330 38
2011-05-09 09:32 51°8.605 2°32.766 -999 238 15.2 102330 39
2011-05-09 09:33 51°8.63 2°32.743 -999 235 15.3 102330 39
2011-05-09 09:34 51°8.693 2°32.81 -999 316 15.2 102330 39
2011-05-09 09:35 51°8.762 2°32.876 -999 36 15.1 102330 38
2011-05-09 09:36 51°8.808 2°32.859 -999 234 15.1 102330 38
2011-05-09 09:37 51°8.836 2°32.819 -999 36 15 102330 39
2011-05-09 09:38 51°8.857 2°32.774 -999 36 14.9 102330 39
2011-05-09 09:39 51°8.899 2°32.808 -999 315 14.9 102340 39
2011-05-09 09:40 51°8.93 2°33.02 -999 326 14.9 102340 39
2011-05-09 09:41 51°8.964 2°33.318 -999 330 15 102340 39
2011-05-09 09:42 51°8.991 2°33.616 -999 328 14.9 102340 39
2011-05-09 09:43 51°9.032 2°33.917 -999 327 14.9 102340 39
2011-05-09 09:44 51°9.061 2°34.21 -999 326 14.9 102340 39
2011-05-09 09:45 51°9.102 2°34.509 -999 325 14.9 102330 39
2011-05-09 09:46 51°9.138 2°34.799 -999 325 15 102340 39
2011-05-09 09:47 51°9.166 2°35.097 -999 322 15 102330 39
2011-05-09 09:48 51°9.206 2°35.39 -999 323 15 102340 39
2011-05-09 09:49 51°9.234 2°35.692 -999 323 15.1 102340 39
2011-05-09 09:50 51°9.272 2°35.958 -999 319 15.2 102330 39
2011-05-09 09:51 51°9.316 2°36.084 -999 245 15.3 102340 39
2011-05-09 09:52 51°9.343 2°36.092 -999 268 15.4 102340 39
2011-05-09 09:53 51°9.35 2°36.072 -999 267 15.4 102330 39
2011-05-09 09:54 51°9.354 2°36.052 -999 263 15.3 102330 38
2011-05-09 09:55 51°9.357 2°36.029 -999 264 15.3 102330 39
2011-05-09 09:56 51°9.357 2°36.004 -999 268 15.3 102320 38
2011-05-09 09:57 51°9.356 2°35.978 -999 268 15.2 102330 38
2011-05-09 09:58 51°9.355 2°35.95 -999 267 15.1 102330 38
2011-05-09 09:59 51°9.352 2°35.922 -999 270 15.2 102330 39
2011-05-09 10:00 51°9.349 2°35.894 -999 267 15.1 102330 39
2011-05-09 10:01 51°9.345 2°35.865 -999 270 15.1 102330 38
2011-05-09 10:02 51°9.352 2°35.849 -999 247 15.1 102330 39
2011-05-09 10:03 51°9.38 2°35.823 1.7 238 15.2 102330 39
2011-05-09 10:04 51°9.419 2°35.79 -999 36 15.2 102330 39
2011-05-09 10:05 51°9.472 2°35.759 -999 36 15.2 102330 39
2011-05-09 10:06 51°9.535 2°35.73 -999 36 15.1 102330 38
2011-05-09 10:07 51°9.585 2°35.647 -999 326 15.1 102320 39
2011-05-09 10:08 51°9.633 2°35.479 -999 326 15.1 102320 39
2011-05-09 10:09 51°9.741 2°35.308 -999 319 15.1 102310 39
2011-05-09 10:10 51°9.907 2°35.253 -999 316 15.1 102320 39
2011-05-09 10:11 51°10.089 2°35.343 -999 317 15 102320 39
2011-05-09 10:12 51°10.27 2°35.455 -999 318 14.9 102320 39
2011-05-09 10:13 51°10.44 2°35.596 -999 316 14.9 102320 39
2011-05-09 10:14 51°10.601 2°35.758 -999 318 14.9 102320 40
2011-05-09 10:15 51°10.763 2°35.911 -999 317 14.9 102320 39
2011-05-09 10:16 51°10.923 2°36.083 -999 320 14.9 102330 39
2011-05-09 10:17 51°11.092 2°36.224 -999 320 14.9 102330 39
2011-05-09 10:18 51°11.249 2°36.392 -999 318 14.9 102330 39
2011-05-09 10:19 51°11.415 2°36.539 -999 321 14.9 102330 39
2011-05-09 10:20 51°11.571 2°36.708 -999 322 14.9 102330 39
2011-05-09 10:21 51°11.737 2°36.851 -999 322 14.9 102330 39
2011-05-09 10:22 51°11.893 2°37.018 -999 321 15 102330 39
2011-05-09 10:23 51°12.061 2°37.152 -999 320 15 102330 40
2011-05-09 10:24 51°12.221 2°37.298 -999 320 15 102330 39
2011-05-09 10:25 51°12.393 2°37.431 -999 322 15.1 102340 39
2011-05-09 10:26 51°12.553 2°37.587 -999 322 15.1 102340 40
2011-05-09 10:27 51°12.722 2°37.72 -999 322 15.1 102340 39
2011-05-09 10:28 51°12.883 2°37.873 -999 320 15.2 102340 39
2011-05-09 10:29 51°13.052 2°38.008 -999 320 15.1 102330 39
2011-05-09 10:30 51°13.22 2°38.145 -999 317 15.1 102330 40
2011-05-09 10:31 51°13.383 2°38.299 -999 319 15 102340 39
2011-05-09 10:32 51°13.556 2°38.432 -999 317 15 102330 39
2011-05-09 10:33 51°13.72 2°38.586 -999 320 15 102330 40
2011-05-09 10:34 51°13.902 2°38.688 -999 317 15 102330 39
2011-05-09 10:35 51°14.098 2°38.686 -999 321 15 102330 39
2011-05-09 10:36 51°14.294 2°38.561 -999 320 15 102330 40
2011-05-09 10:37 51°14.493 2°38.447 -999 323 15 102330 40
2011-05-09 10:38 51°14.691 2°38.342 -999 322 15.1 102330 40
2011-05-09 10:39 51°14.888 2°38.248 -999 321 15.1 102340 40
2011-05-09 10:40 51°15.075 2°38.107 -999 321 15 102340 40
2011-05-09 10:41 51°15.264 2°37.977 -999 321 15 102340 40
2011-05-09 10:42 51°15.445 2°37.806 -999 323 15 102340 40
2011-05-09 10:43 51°15.633 2°37.656 -999 322 15 102340 40
2011-05-09 10:44 51°15.817 2°37.492 -999 324 15 102350 40
2011-05-09 10:45 51°16.007 2°37.346 -999 322 15 102350 40
2011-05-09 10:46 51°16.197 2°37.193 -999 322 14.9 102340 40
2011-05-09 10:47 51°16.388 2°37.046 -999 325 14.9 102340 40
2011-05-09 10:48 51°16.521 2°36.885 -999 317 14.9 102340 40
2011-05-09 10:49 51°16.601 2°36.848 -999 240 14.9 102340 40
2011-05-09 10:50 51°16.61 2°36.813 -999 243 14.9 102340 40
2011-05-09 10:51 51°16.603 2°36.779 -999 236 15 102340 40
2011-05-09 10:52 51°16.594 2°36.744 -999 36 15 102340 40
2011-05-09 10:53 51°16.586 2°36.71 -999 36 15.1 102340 40
2011-05-09 10:54 51°16.576 2°36.675 -999 36 15.2 102340 40
2011-05-09 10:55 51°16.567 2°36.642 -999 37 15.2 102350 40
2011-05-09 10:56 51°16.557 2°36.61 -999 238 15.2 102350 40
2011-05-09 10:57 51°16.548 2°36.578 -999 246 15.2 102350 40
2011-05-09 10:58 51°16.538 2°36.547 -999 249 15.3 102350 40
2011-05-09 10:59 51°16.528 2°36.516 -999 249 15.4 102350 40
2011-05-09 11:00 51°16.518 2°36.487 -999 255 15.4 102350 40
2011-05-09 11:01 51°16.507 2°36.456 -999 258 15.4 102350 39
2011-05-09 11:02 51°16.525 2°36.461 -999 263 15.3 102350 39
2011-05-09 11:03 51°16.544 2°36.567 -999 239 15.4 102350 40
2011-05-09 11:04 51°16.573 2°36.703 -999 36 15.4 102350 39
2011-05-09 11:05 51°16.578 2°36.798 -999 36 15.4 102350 40
2011-05-09 11:06 51°16.575 2°36.815 0.1 268 15.3 102360 39
2011-05-09 11:07 51°16.574 2°36.803 -999 261 15.2 102350 39
2011-05-09 11:08 51°16.573 2°36.781 -999 263 15.1 102350 39
2011-05-09 11:09 51°16.57 2°36.754 -999 259 15.1 102350 40
2011-05-09 11:10 51°16.566 2°36.724 -999 255 15.2 102350 40
2011-05-09 11:11 51°16.562 2°36.694 -999 254 15.2 102350 40
2011-05-09 11:12 51°16.556 2°36.663 -999 251 15.3 102350 40
2011-05-09 11:13 51°16.55 2°36.631 -999 250 15.3 102350 40
2011-05-09 11:14 51°16.544 2°36.599 -999 248 15.5 102350 40
2011-05-09 11:15 51°16.536 2°36.565 -999 251 15.5 102350 40
2011-05-09 11:16 51°16.529 2°36.533 -999 250 15.6 102350 40
2011-05-09 11:17 51°16.52 2°36.5 -999 256 15.7 102340 40
2011-05-09 11:18 51°16.512 2°36.467 -999 257 15.7 102340 40
2011-05-09 11:19 51°16.502 2°36.434 -999 257 15.8 102340 40
2011-05-09 11:20 51°16.493 2°36.401 -999 257 15.9 102340 40
2011-05-09 11:21 51°16.483 2°36.368 -999 267 15.9 102340 40
2011-05-09 11:22 51°16.473 2°36.335 -999 257 15.9 102340 39
2011-05-09 11:23 51°16.463 2°36.302 -999 261 15.9 102340 39
2011-05-09 11:24 51°16.452 2°36.27 -999 263 15.9 102340 39
2011-05-09 11:25 51°16.442 2°36.237 -999 264 15.9 102340 39
2011-05-09 11:26 51°16.431 2°36.203 -999 270 15.9 102340 39
2011-05-09 11:27 51°16.42 2°36.17 -999 37 15.8 102340 39
2011-05-09 11:28 51°16.409 2°36.136 -999 37 15.7 102340 39
2011-05-09 11:29 51°16.398 2°36.102 -999 37 15.6 102340 39
2011-05-09 11:30 51°16.387 2°36.069 -999 37 15.4 102340 39
2011-05-09 11:31 51°16.375 2°36.037 -999 37 15.3 102350 39
2011-05-09 11:32 51°16.363 2°36.005 -999 37 15.3 102340 39
2011-05-09 11:33 51°16.352 2°35.974 -999 36 15.2 102340 39
2011-05-09 11:34 51°16.34 2°35.943 -999 37 15.2 102340 40
2011-05-09 11:35 51°16.329 2°35.914 -999 36 15.1 102350 40
2011-05-09 11:36 51°16.317 2°35.884 -999 37 15.1 102350 40
2011-05-09 11:37 51°16.305 2°35.854 -999 36 15 102350 40
2011-05-09 11:38 51°16.293 2°35.826 -999 36 15 102350 40
2011-05-09 11:39 51°16.281 2°35.798 -999 37 14.9 102350 40
2011-05-09 11:40 51°16.27 2°35.772 -999 36 14.9 102350 40
2011-05-09 11:41 51°16.257 2°35.744 -999 36 14.8 102350 40
2011-05-09 11:42 51°16.244 2°35.717 -999 36 14.8 102350 40
2011-05-09 11:43 51°16.233 2°35.69 -999 36 14.8 102350 41
2011-05-09 11:44 51°16.22 2°35.663 -999 36 14.8 102350 41
2011-05-09 11:45 51°16.206 2°35.636 -999 36 14.8 102340 41
2011-05-09 11:46 51°16.193 2°35.615 -999 36 14.8 102340 41
2011-05-09 11:47 51°16.148 2°35.662 -999 349 14.9 102350 41
2011-05-09 11:48 51°16.055 2°35.66 -999 356 14.8 102340 40
2011-05-09 11:49 51°15.976 2°35.61 -999 1 14.6 102340 41
2011-05-09 11:50 51°15.913 2°35.556 -999 9 14.4 102340 41
2011-05-09 11:51 51°15.857 2°35.496 -999 4 14.3 102340 42
2011-05-09 11:52 51°15.808 2°35.433 -999 7 14.2 102340 42
2011-05-09 11:53 51°15.763 2°35.372 -999 6 14.1 102340 42
2011-05-09 11:54 51°15.72 2°35.311 -999 3 14 102340 42
2011-05-09 11:55 51°15.672 2°35.248 -999 6 14 102340 42
2011-05-09 11:56 51°15.624 2°35.186 -999 7 13.9 102340 43
2011-05-09 11:57 51°15.572 2°35.124 -999 6 13.8 102340 42
2011-05-09 11:58 51°15.519 2°35.061 -999 7 13.8 102340 43
2011-05-09 11:59 51°15.468 2°34.998 -999 8 13.8 102340 43
2011-05-09 12:00 51°15.414 2°34.94 -999 8 13.8 102340 43
2011-05-09 12:01 51°15.361 2°34.882 -999 7 13.8 102330 42
2011-05-09 12:02 51°15.307 2°34.82 -999 7 13.8 102330 43
2011-05-09 12:03 51°15.255 2°34.756 -999 360 13.8 102330 43
2011-05-09 12:04 51°15.202 2°34.692 -999 359 13.8 102330 43
2011-05-09 12:05 51°15.151 2°34.63 -999 4 13.8 102340 43
2011-05-09 12:06 51°15.099 2°34.566 -999 4 13.8 102340 42
2011-05-09 12:07 51°15.046 2°34.505 -999 4 13.8 102340 43
2011-05-09 12:08 51°14.993 2°34.445 -999 3 13.8 102340 43
2011-05-09 12:09 51°14.938 2°34.387 -999 6 13.8 102340 43
2011-05-09 12:10 51°14.884 2°34.329 -999 4 13.8 102340 43
2011-05-09 12:11 51°14.829 2°34.27 -999 3 13.8 102340 43
2011-05-09 12:12 51°14.776 2°34.212 -999 4 13.8 102340 43
2011-05-09 12:13 51°14.722 2°34.15 -999 4 13.8 102340 43
2011-05-09 12:14 51°14.671 2°34.091 -999 4 13.8 102330 43
2011-05-09 12:15 51°14.618 2°34.031 -999 7 13.8 102340 43
2011-05-09 12:16 51°14.565 2°33.969 -999 7 13.8 102330 43
2011-05-09 12:17 51°14.514 2°33.908 -999 8 13.8 102340 43
2011-05-09 12:18 51°14.463 2°33.849 -999 7 13.8 102330 43
2011-05-09 12:19 51°14.411 2°33.792 -999 8 13.8 102330 43
2011-05-09 12:20 51°14.359 2°33.731 -999 1 13.8 102340 43
2011-05-09 12:21 51°14.322 2°33.655 -999 355 13.8 102340 43
2011-05-09 12:22 51°14.297 2°33.568 -999 346 13.8 102340 41
2011-05-09 12:23 51°14.285 2°33.477 -999 340 13.8 102340 43
2011-05-09 12:24 51°14.284 2°33.388 -999 332 14 102340 44
2011-05-09 12:25 51°14.295 2°33.307 -999 325 14.3 102340 44
2011-05-09 12:26 51°14.322 2°33.24 -999 37 14.5 102340 43
2011-05-09 12:27 51°14.351 2°33.208 -999 234 14.5 102340 43
2011-05-09 12:28 51°14.367 2°33.185 -999 241 14.6 102340 43
2011-05-09 12:29 51°14.377 2°33.163 -999 242 14.7 102330 43
2011-05-09 12:30 51°14.381 2°33.14 -999 242 14.8 102340 41
2011-05-09 12:31 51°14.385 2°33.115 -999 242 14.9 102340 43
2011-05-09 12:32 51°14.413 2°33.122 -999 242 15 102340 42
2011-05-09 12:33 51°14.413 2°33.222 -999 236 15.1 102340 42
2011-05-09 12:34 51°14.35 2°33.294 -999 8 15.3 102340 42
2011-05-09 12:35 51°14.274 2°33.304 -999 9 15.3 102340 42
2011-05-09 12:36 51°14.201 2°33.27 -999 8 15 102330 41
2011-05-09 12:37 51°14.136 2°33.225 -999 10 14.8 102330 42
2011-05-09 12:38 51°14.074 2°33.184 -999 16 14.6 102330 40
2011-05-09 12:39 51°14.014 2°33.14 -999 9 14.5 102330 42
2011-05-09 12:40 51°13.956 2°33.091 -999 9 14.4 102330 42
2011-05-09 12:41 51°13.901 2°33.042 -999 10 14.3 102330 42
2011-05-09 12:42 51°13.845 2°32.991 -999 10 14.2 102330 42
2011-05-09 12:43 51°13.79 2°32.938 -999 12 14.1 102330 42
2011-05-09 12:44 51°13.737 2°32.883 -999 13 14.1 102330 42
2011-05-09 12:45 51°13.684 2°32.833 -999 20 14.2 102330 43
2011-05-09 12:46 51°13.63 2°32.784 -999 13 14.3 102330 41
2011-05-09 12:47 51°13.575 2°32.736 -999 17 14.3 102330 42
2011-05-09 12:48 51°13.52 2°32.685 -999 12 14.3 102330 43
2011-05-09 12:49 51°13.466 2°32.635 -999 16 14.3 102330 42
2011-05-09 12:50 51°13.412 2°32.585 -999 13 14.3 102330 42
2011-05-09 12:51 51°13.36 2°32.53 -999 9 14.2 102330 42
2011-05-09 12:52 51°13.309 2°32.465 -999 3 14.2 102330 43
2011-05-09 12:53 51°13.259 2°32.394 -999 3 14.1 102330 43
2011-05-09 12:54 51°13.213 2°32.315 -999 358 14.1 102320 41
2011-05-09 12:55 51°13.17 2°32.229 -999 358 13.9 102320 43
2011-05-09 12:56 51°13.13 2°32.142 -999 359 13.8 102320 43
2011-05-09 12:57 51°13.094 2°32.053 -999 355 13.7 102320 43
2011-05-09 12:58 51°13.06 2°31.962 -999 356 13.7 102320 43
2011-05-09 12:59 51°13.024 2°31.871 -999 356 13.6 102320 43
2011-05-09 13:00 51°12.987 2°31.779 -999 355 13.6 102310 43
2011-05-09 13:01 51°12.951 2°31.692 -999 354 13.5 102310 43
2011-05-09 13:02 51°12.913 2°31.603 -999 355 13.5 102310 42
2011-05-09 13:03 51°12.874 2°31.519 -999 355 13.5 102310 43
2011-05-09 13:04 51°12.842 2°31.428 -999 343 13.5 102310 43
2011-05-09 13:05 51°12.836 2°31.33 -999 336 13.5 102310 44
2011-05-09 13:06 51°12.845 2°31.238 -999 335 13.7 102310 44
2011-05-09 13:07 51°12.862 2°31.152 -999 328 13.9 102320 44
2011-05-09 13:08 51°12.892 2°31.082 -999 319 14 102320 44
2011-05-09 13:09 51°12.936 2°31.05 -999 235 14.1 102320 43
2011-05-09 13:10 51°12.984 2°31.071 -999 250 14.2 102320 42
2011-05-09 13:11 51°13.007 2°31.135 -999 262 14.3 102320 43
2011-05-09 13:12 51°13.002 2°31.218 -999 36 14.4 102330 43
2011-05-09 13:13 51°12.989 2°31.274 -999 36 14.4 102330 43
2011-05-09 13:14 51°12.971 2°31.307 -999 36 14.4 102330 43
2011-05-09 13:15 51°12.953 2°31.325 -999 36 14.5 102330 43
2011-05-09 13:16 51°12.937 2°31.334 -999 36 14.6 102330 43
2011-05-09 13:17 51°12.921 2°31.336 -999 36 14.5 102320 42
2011-05-09 13:18 51°12.906 2°31.334 -999 43 14.4 102320 41
2011-05-09 13:19 51°12.884 2°31.336 -999 37 14.3 102320 43
2011-05-09 13:20 51°12.845 2°31.426 -999 34 14.3 102320 43
2011-05-09 13:21 51°12.878 2°31.629 -999 36 14.4 102320 43
2011-05-09 13:22 51°12.95 2°31.879 -999 36 14.4 102310 43
2011-05-09 13:23 51°13.004 2°32.173 -999 36 14.4 102310 43
2011-05-09 13:24 51°13.053 2°32.47 -999 318 14.3 102310 43
2011-05-09 13:25 51°13.141 2°32.755 -999 316 14.4 102310 43
2011-05-09 13:26 51°13.255 2°33.012 -999 36 14.4 102310 41
2011-05-09 13:27 51°13.359 2°33.275 -999 316 14.3 102300 42
2011-05-09 13:28 51°13.444 2°33.557 -999 36 14.3 102300 42
2011-05-09 13:29 51°13.474 2°33.87 -999 36 14.3 102310 42
2011-05-09 13:30 51°13.524 2°34.182 -999 36 14.2 102310 42
2011-05-09 13:31 51°13.578 2°34.483 -999 36 14.3 102310 42
2011-05-09 13:32 51°13.635 2°34.793 -999 316 14.2 102310 42
2011-05-09 13:33 51°13.685 2°35.099 -999 318 14.2 102300 42
2011-05-09 13:34 51°13.74 2°35.417 -999 318 14.3 102300 41
2011-05-09 13:35 51°13.779 2°35.729 -999 316 14.4 102300 42
2011-05-09 13:36 51°13.835 2°36.039 -999 317 14.4 102300 42
2011-05-09 13:37 51°13.879 2°36.354 -999 317 14.5 102300 42
2011-05-09 13:38 51°13.929 2°36.663 -999 317 14.5 102300 42
2011-05-09 13:39 51°13.966 2°36.98 -999 316 14.5 102300 42
2011-05-09 13:40 51°13.998 2°37.285 -999 316 14.5 102300 42
2011-05-09 13:41 51°14.044 2°37.589 -999 317 14.5 102300 42
2011-05-09 13:42 51°14.08 2°37.898 -999 321 14.6 102300 41
2011-05-09 13:43 51°14.121 2°38.205 -999 320 14.7 102310 42
2011-05-09 13:44 51°14.159 2°38.52 -999 320 14.8 102310 42
2011-05-09 13:45 51°14.196 2°38.832 -999 318 14.9 102310 42
2011-05-09 13:46 51°14.233 2°39.141 -999 320 14.9 102310 42
2011-05-09 13:47 51°14.248 2°39.465 -999 320 15 102320 42
2011-05-09 13:48 51°14.277 2°39.794 -999 321 15.1 102320 42
2011-05-09 13:49 51°14.286 2°40.118 -999 321 15.1 102320 42
2011-05-09 13:50 51°14.293 2°40.455 -999 322 15.1 102320 42
2011-05-09 13:51 51°14.316 2°40.779 -999 322 15.2 102320 42
2011-05-09 13:52 51°14.324 2°41.11 -999 322 15.2 102320 42
2011-05-09 13:53 51°14.336 2°41.439 -999 320 15.2 102330 42
2011-05-09 13:54 51°14.358 2°41.767 -999 319 15.2 102320 42
2011-05-09 13:55 51°14.373 2°42.103 -999 318 15.2 102320 41
2011-05-09 13:56 51°14.382 2°42.432 -999 317 15.2 102320 41
2011-05-09 13:57 51°14.404 2°42.759 -999 317 15.1 102310 41
2011-05-09 13:58 51°14.415 2°43.086 -999 321 15.1 102320 41
2011-05-09 13:59 51°14.432 2°43.412 -999 324 15.2 102310 41
2011-05-09 14:00 51°14.457 2°43.735 -999 323 15.2 102300 41
2011-05-09 14:01 51°14.471 2°44.058 -999 323 15.2 102300 41
2011-05-09 14:02 51°14.5 2°44.391 -999 321 15.2 102300 41
2011-05-09 14:03 51°14.512 2°44.721 -999 320 15.1 102300 41
2011-05-09 14:04 51°14.533 2°45.049 -999 322 15 102300 41
2011-05-09 14:05 51°14.551 2°45.376 -999 321 15 102300 42
2011-05-09 14:06 51°14.568 2°45.703 -999 321 15 102290 42
2011-05-09 14:07 51°14.589 2°46.031 -999 319 15.1 102290 42
2011-05-09 14:08 51°14.605 2°46.36 -999 321 15 102290 41
2011-05-09 14:09 51°14.632 2°46.688 -999 321 15 102290 42
2011-05-09 14:10 51°14.644 2°47.021 -999 321 15.1 102290 41
2011-05-09 14:11 51°14.661 2°47.351 -999 323 15.1 102290 42
2011-05-09 14:12 51°14.692 2°47.687 -999 321 15.1 102290 42
2011-05-09 14:13 51°14.707 2°48.021 -999 322 15.1 102290 42
2011-05-09 14:14 51°14.725 2°48.354 -999 323 15.1 102300 42
2011-05-09 14:15 51°14.752 2°48.678 -999 321 15.2 102300 42
2011-05-09 14:16 51°14.766 2°49.015 -999 323 15.2 102300 42
2011-05-09 14:17 51°14.793 2°49.341 -999 322 15.2 102300 41
2011-05-09 14:18 51°14.809 2°49.67 -999 321 15.2 102300 42
2011-05-09 14:19 51°14.834 2°49.996 -999 323 15.2 102300 41
2011-05-09 14:20 51°14.851 2°50.32 -999 321 15.3 102300 42
2011-05-09 14:21 51°14.873 2°50.657 -999 322 15.3 102300 42
2011-05-09 14:22 51°14.872 2°50.984 -999 322 15.3 102300 42
2011-05-09 14:23 51°14.869 2°51.321 -999 322 15.4 102300 42
2011-05-09 14:24 51°14.865 2°51.647 -999 320 15.4 102300 42
2011-05-09 14:25 51°14.859 2°51.98 -999 322 15.4 102300 42
2011-05-09 14:26 51°14.862 2°52.317 -999 320 15.3 102290 42
2011-05-09 14:27 51°14.849 2°52.641 -999 321 15.3 102290 42
2011-05-09 14:28 51°14.845 2°52.98 -999 319 15.3 102290 42
2011-05-09 14:29 51°14.83 2°53.307 10.5 320 15.3 102290 41
2011-05-09 14:30 51°14.831 2°53.65 4.3 321 15.2 102290 42
2011-05-09 14:31 51°14.802 2°53.982 4.6 319 15.2 102290 42
2011-05-09 14:32 51°14.764 2°54.308 4.4 318 15.2 102290 41
2011-05-09 14:33 51°14.695 2°54.616 7.9 31 15.1 102290 42
2011-05-09 14:34 51°14.592 2°54.891 5.8 37 15 102290 42
2011-05-09 14:35 51°14.444 2°55.1 -999 36 14.9 102290 41
2011-05-09 14:36 51°14.336 2°55.212 -999 240 14.9 102300 42
2011-05-09 14:37 51°14.232 2°55.316 -999 240 14.9 102300 42
2011-05-09 14:38 51°14.112 2°55.417 -999 237 15 102300 42
2011-05-09 14:39 51°14 2°55.498 -999 251 15 102290 42
2011-05-09 14:40 51°13.901 2°55.568 -999 250 15.2 102290 42
2011-05-09 14:41 51°13.811 2°55.638 -999 248 15.3 102300 42
2011-05-09 14:42 51°13.737 2°55.741 -999 243 15.4 102300 41
2011-05-09 14:43 51°13.693 2°55.835 -999 252 15.4 102300 41
2011-05-09 14:44 51°13.671 2°55.92 -999 258 15.5 102300 41
2011-05-09 14:45 51°13.662 2°55.957 -999 257 15.7 102300 41
2011-05-09 14:46 51°13.661 2°55.96 0.1 262 15.8 102290 38